Time;durP1;ratioP1;P1;durP2;ratioP2;P2;SDS_P1;SDS_P2;PMS_P1;PMS_P2;Temp;Humidity;BMP_temperature;BMP_pressure;BME280_temperature;BME280_humidity;BME280_pressure;Samples;Min_cycle;Max_cycle;Signal;HPM_P1;HPM_P2
2022/08/11 00:00:36;;;;;;;0.57;0.57;;;;;;;25.06;39.08;101178.81;5075020;28;20025;-65
2022/08/11 00:03:06;;;;;;;0.68;0.68;;;;;;;25.05;39.62;101179.91;5074686;28;20055;-65
2022/08/11 00:05:32;;;;;;;0.50;0.50;;;;;;;25.06;39.52;101176.91;5075766;28;20492;-65
2022/08/11 00:07:57;;;;;;;0.57;0.57;;;;;;;25.05;39.56;101177.19;5069165;28;20033;-65
2022/08/11 00:10:25;;;;;;;0.50;0.50;;;;;;;25.03;39.81;101171.16;5037942;28;20025;-65
2022/08/11 00:12:55;;;;;;;0.43;0.43;;;;;;;25.05;39.56;101175.25;5055632;28;20460;-65
2022/08/11 00:15:22;;;;;;;0.50;0.50;;;;;;;25.06;40.35;101181.53;5038297;28;20020;-65
2022/08/11 00:17:47;;;;;;;0.50;0.50;;;;;;;25.05;39.80;101168.97;5055951;28;20086;-65
2022/08/11 00:20:13;;;;;;;0.50;0.50;;;;;;;25.04;39.89;101172.78;5054570;28;20024;-65
2022/08/11 00:22:40;;;;;;;0.50;0.50;;;;;;;25.05;40.27;101163.50;5056032;28;20090;-65
2022/08/11 00:25:16;;;;;;;0.60;0.60;;;;;;;25.04;39.73;101164.59;5055873;28;20060;-65
2022/08/11 00:27:42;;;;;;;0.57;0.57;;;;;;;25.08;40.42;101154.78;5054345;28;20029;-65
2022/08/11 00:30:08;;;;;;;0.60;0.60;;;;;;;25.05;40.55;101153.38;5054539;28;20028;-65
2022/08/11 00:32:35;;;;;;;0.50;0.50;;;;;;;25.06;40.18;101151.47;5055293;28;20056;-65
2022/08/11 00:35:01;;;;;;;0.52;0.52;;;;;;;25.07;40.22;101148.47;5056151;28;20029;-65
2022/08/11 00:37:26;;;;;;;0.50;0.50;;;;;;;25.06;40.57;101137.78;5054109;28;20376;-65
2022/08/11 00:39:53;;;;;;;0.47;0.47;;;;;;;25.07;40.13;101139.44;5055460;28;20021;-65
2022/08/11 00:42:56;;;;;;;0.50;0.50;;;;;;;25.09;40.39;101145.47;5037788;28;20068;-65
2022/08/11 00:45:45;;;;;;;0.60;0.60;;;;;;;25.08;40.66;101146.56;5055448;28;20025;-65
2022/08/11 00:48:13;;;;;;;0.60;0.60;;;;;;;25.09;40.07;101150.94;5055322;28;20032;-65
2022/08/11 00:51:06;;;;;;;0.60;0.60;;;;;;;25.06;40.77;101148.72;5054996;28;20040;-65
2022/08/11 00:54:05;;;;;;;1.02;0.57;;;;;;;25.09;40.84;101142.72;5053808;28;20029;-65
2022/08/11 00:56:48;;;;;;;0.65;0.65;;;;;;;25.07;40.85;101143.00;5055002;28;20029;-65
2022/08/11 00:59:39;;;;;;;0.57;0.57;;;;;;;25.07;40.42;101133.97;5054854;28;20151;-65
2022/08/11 01:02:15;;;;;;;0.60;0.60;;;;;;;25.05;40.41;101141.63;5054941;28;20028;-65
2022/08/11 01:04:43;;;;;;;0.60;0.60;;;;;;;25.07;40.83;101133.97;5037435;28;20025;-65
2022/08/11 01:07:50;;;;;;;0.60;0.57;;;;;;;25.11;40.66;101140.53;5054883;28;20029;-65
2022/08/11 01:10:59;;;;;;;0.60;0.60;;;;;;;25.12;41.00;101136.72;5034246;28;20037;-65
2022/08/11 01:13:28;;;;;;;0.60;0.60;;;;;;;25.07;40.74;101133.97;5033419;28;20110;-65
2022/08/11 01:16:30;;;;;;;0.52;0.52;;;;;;;25.09;41.24;101131.78;5034509;28;20029;-65
2022/08/11 01:19:36;;;;;;;0.60;0.60;;;;;;;25.11;41.20;101126.88;5034408;28;20375;-65
2022/08/11 01:22:11;;;;;;;0.70;0.70;;;;;;;25.12;40.57;101136.72;5033374;28;20049;-65
2022/08/11 01:24:46;;;;;;;0.70;0.70;;;;;;;25.07;41.33;101128.50;5034615;28;20034;-65
2022/08/11 01:27:25;;;;;;;0.63;0.63;;;;;;;25.09;40.90;101131.78;5033432;28;20030;-65
2022/08/11 01:30:16;;;;;;;0.55;0.55;;;;;;;25.08;41.66;101130.16;5033369;28;20036;-65
2022/08/11 01:33:12;;;;;;;0.70;0.70;;;;;;;25.10;41.08;101133.44;5032862;28;20056;-65
2022/08/11 01:36:25;;;;;;;0.50;0.50;;;;;;;25.09;40.83;101131.78;5034429;28;20391;-65
2022/08/11 01:39:12;;;;;;;0.70;0.70;;;;;;;25.11;41.27;101140.53;5012461;28;20037;-65
2022/08/11 01:45:20;;;;;;;0.70;0.70;;;;;;;25.10;41.19;101139.72;5012489;28;20148;-65
2022/08/11 01:47:59;;;;;;;0.90;0.90;;;;;;;25.09;41.86;101131.78;5012274;28;20039;-65
2022/08/11 01:50:55;;;;;;;0.77;0.77;;;;;;;25.09;41.27;101131.78;5011739;28;20038;-65
2022/08/11 01:53:37;;;;;;;0.70;0.70;;;;;;;25.10;41.15;101134.25;5012166;28;20467;-65
2022/08/11 01:56:12;;;;;;;0.70;0.70;;;;;;;25.09;41.91;101129.06;5012212;28;20068;-65
2022/08/11 01:59:02;;;;;;;0.65;0.65;;;;;;;25.10;41.47;101130.72;5012798;28;20188;-65
2022/08/11 02:01:49;;;;;;;0.60;0.60;;;;;;;25.10;41.94;101127.97;5028302;28;20030;-65
2022/08/11 02:04:25;;;;;;;0.50;0.50;;;;;;;25.09;41.59;101131.78;5028478;28;20049;-65
2022/08/11 02:07:09;;;;;;;0.52;0.52;;;;;;;25.11;41.88;101126.88;5012372;28;20118;-65
2022/08/11 02:09:49;;;;;;;0.70;0.70;;;;;;;25.08;41.69;101121.97;5040714;28;20063;-65
2022/08/11 02:12:15;;;;;;;0.70;0.70;;;;;;;25.09;42.47;101127.16;5053160;28;20475;-65
2022/08/11 02:14:45;;;;;;;0.70;0.70;;;;;;;25.07;42.38;101123.03;5054143;28;20075;-65
2022/08/11 02:17:20;;;;;;;0.77;0.70;;;;;;;25.05;42.55;101114.28;5053203;28;20028;-65
2022/08/11 02:25:37;;;;;;;0.70;0.70;;;;;;;25.07;42.84;101118.38;5054555;28;20116;-65
2022/08/11 02:28:22;;;;;;;0.85;0.70;;;;;;;25.07;42.60;101112.91;5052992;28;20029;-65
2022/08/11 02:33:21;;;;;;;0.43;0.43;;;;;;;25.08;42.06;101120.03;5052836;28;20112;-65
2022/08/11 02:33:42;;;;;;;0.65;0.65;;;;;;;25.11;42.94;101113.19;5053272;28;20114;-65
2022/08/11 02:36:18;;;;;;;0.60;0.60;;;;;;;25.08;42.89;101105.56;5035371;28;20479;-65
2022/08/11 02:39:04;;;;;;;0.68;0.68;;;;;;;25.10;42.65;101100.63;5052228;28;20053;-65
2022/08/11 02:44:43;;;;;;;0.70;0.70;;;;;;;25.08;43.12;101103.63;5053423;28;20047;-65
2022/08/11 02:47:30;;;;;;;0.60;0.60;;;;;;;25.11;43.07;101097.63;5051877;28;20029;-65
2022/08/11 02:50:02;;;;;;;0.82;0.82;;;;;;;25.07;42.60;101090.22;5053827;28;20424;-65
2022/08/11 02:52:46;;;;;;;0.50;0.50;;;;;;;25.11;43.38;101097.63;5051815;28;20487;-65
2022/08/11 02:55:41;;;;;;;0.70;0.70;;;;;;;25.09;43.07;101096.25;5052489;28;20051;-65
2022/08/11 02:58:18;;;;;;;0.70;0.70;;;;;;;25.10;42.92;101093.25;5037312;28;20166;-65
2022/08/11 03:00:56;;;;;;;0.52;0.52;;;;;;;25.10;43.07;101089.69;5051931;28;20032;-65
2022/08/11 03:03:29;;;;;;;0.60;0.60;;;;;;;25.08;42.85;101092.69;5035925;28;20454;-65
2022/08/11 03:06:36;;;;;;;0.60;0.60;;;;;;;25.10;43.54;101078.75;5052082;28;20032;-65
2022/08/11 03:09:41;;;;;;;0.60;0.60;;;;;;;25.14;43.80;101074.38;5036778;28;20085;-65
2022/08/11 03:18:05;;;;;;;0.88;0.80;;;;;;;25.09;43.41;101093.50;5030974;28;20146;-65
2022/08/11 03:20:44;;;;;;;0.50;0.50;;;;;;;25.09;44.14;101090.78;5030696;28;20056;-65
2022/08/11 03:23:26;;;;;;;0.60;0.60;;;;;;;25.06;43.69;101091.31;5016642;28;20040;-65
2022/08/11 03:26:00;;;;;;;0.60;0.60;;;;;;;25.08;43.43;101089.97;5018088;28;20067;-65
2022/08/11 03:28:52;;;;;;;0.68;0.68;;;;;;;25.10;44.15;101089.69;5018676;28;20087;-65
2022/08/11 03:31:23;;;;;;;0.70;0.70;;;;;;;25.10;43.65;101092.44;5034601;28;20033;-65
2022/08/11 03:34:06;;;;;;;0.60;0.60;;;;;;;25.08;43.53;101091.88;5018503;28;20487;-65
2022/08/11 03:36:53;;;;;;;0.60;0.60;;;;;;;25.07;43.77;101085.56;5019837;28;20033;-65
2022/08/11 03:39:24;;;;;;;0.80;0.80;;;;;;;25.05;44.04;101082.28;5034172;28;20041;-65
2022/08/11 03:42:04;;;;;;;0.60;0.60;;;;;;;25.09;43.80;101079.84;5034110;28;20073;-65
2022/08/11 03:44:35;;;;;;;0.70;0.70;;;;;;;25.08;43.14;101086.41;5034155;28;20048;-65
2022/08/11 03:47:39;;;;;;;0.65;0.65;;;;;;;25.08;44.41;101067.28;5034018;28;20099;-65
2022/08/11 03:50:23;;;;;;;0.60;0.60;;;;;;;25.06;43.90;101077.63;5055223;28;20049;-66
2022/08/11 03:53:09;;;;;;;0.70;0.70;;;;;;;25.07;43.95;101071.88;5040410;28;20071;-65
2022/08/11 03:56:02;;;;;;;0.50;0.50;;;;;;;25.11;43.61;101070.28;5054827;28;20395;-65
2022/08/11 03:58:31;;;;;;;1.20;0.68;;;;;;;25.08;43.78;101078.22;5055967;28;20025;-65
2022/08/11 04:01:03;;;;;;;2.03;0.75;;;;;;;25.09;43.87;101068.91;5056048;28;20035;-65
2022/08/11 04:04:03;;;;;;;4.68;1.30;;;;;;;25.11;44.49;101067.56;5056197;28;20059;-65
2022/08/11 04:06:39;;;;;;;0.80;0.65;;;;;;;25.07;43.53;101079.28;5055935;28;20025;-66
2022/08/11 04:09:22;;;;;;;1.27;0.90;;;;;;;25.09;43.41;101074.38;5067227;28;20320;-65
2022/08/11 04:12:11;;;;;;;0.82;0.73;;;;;;;25.09;43.24;101083.41;5075988;28;20028;-65
2022/08/11 04:18:27;;;;;;;0.82;0.60;;;;;;;25.09;43.81;101071.63;5076134;28;20066;-65
2022/08/11 04:20:59;;;;;;;1.38;0.80;;;;;;;25.05;44.53;101070.53;5074659;28;20104;-65
2022/08/11 04:23:36;;;;;;;1.02;0.90;;;;;;;25.05;44.71;101059.59;5075817;28;20086;-65
2022/08/11 04:26:36;;;;;;;1.05;0.90;;;;;;;25.09;44.46;101056.06;5075390;28;20368;-65
2022/08/11 04:29:35;;;;;;;2.15;0.70;;;;;;;25.09;44.71;101060.69;5075719;28;20386;-65
2022/08/11 04:32:25;;;;;;;2.75;0.70;;;;;;;25.08;44.30;101064.53;5074225;28;20111;-65
2022/08/11 04:35:09;;;;;;;0.63;0.63;;;;;;;25.05;44.93;101054.13;5075163;28;20107;-65
2022/08/11 04:37:35;;;;;;;1.35;0.65;;;;;;;25.07;44.52;101058.22;5074489;28;20032;-65
2022/08/11 04:40:19;;;;;;;0.60;0.60;;;;;;;25.05;44.32;101060.41;5075059;28;20055;-65
2022/08/11 04:46:33;;;;;;;1.33;0.75;;;;;;;25.05;44.21;101054.13;5075493;28;20517;-65
2022/08/11 05:01:41;;;;;;;0.63;0.63;;;;;;;25.06;44.59;101053.00;5060768;28;20493;-66
2022/08/11 05:05:29;;;;;;;0.70;0.70;;;;;;;25.01;44.50;101056.56;5074648;28;20028;-66
2022/08/11 05:07:29;;;;;;;0.82;0.82;;;;;;;24.98;45.37;101046.16;5074558;28;20059;-66
2022/08/11 05:10:32;;;;;;;0.90;0.90;;;;;;;25.04;45.08;101053.31;5056923;28;20036;-68
2022/08/11 05:27:09;;;;;;;4.78;2.35;;;;;;;24.98;45.46;101043.44;5056691;28;20055;-66
2022/08/11 05:35:49;;;;;;;6.35;3.30;;;;;;;25.02;45.15;101025.38;5054896;28;20114;-66
2022/08/11 05:57:55;;;;;;;2.97;1.45;;;;;;;25.01;45.44;101012.81;5038538;28;20086;-65
2022/08/11 06:00:23;;;;;;;1.55;1.05;;;;;;;25.01;45.18;100999.16;5053571;28;20042;-65
2022/08/11 06:02:56;;;;;;;3.60;1.10;;;;;;;25.00;45.51;101002.16;5053248;28;20045;-64
2022/08/11 06:05:21;;;;;;;1.40;1.30;;;;;;;25.02;45.18;100994.50;5052177;28;20028;-66
2022/08/11 06:07:47;;;;;;;2.13;1.15;;;;;;;25.07;44.98;100999.97;5053560;28;20033;-65
2022/08/11 06:10:13;;;;;;;2.13;1.38;;;;;;;25.06;45.08;100996.44;5055220;28;20101;-65
2022/08/11 06:12:39;;;;;;;1.95;1.30;;;;;;;25.02;45.63;101002.69;5073498;28;20025;-65
2022/08/11 06:15:10;;;;;;;2.33;1.10;;;;;;;24.97;45.72;101005.41;5073566;28;20031;-65
2022/08/11 06:17:45;;;;;;;2.47;1.17;;;;;;;24.97;45.71;100997.22;5072282;28;20021;-65
2022/08/11 06:20:11;;;;;;;1.67;1.00;;;;;;;24.96;45.67;101001.88;5071434;28;20033;-65
2022/08/11 06:22:49;;;;;;;2.90;1.05;;;;;;;24.95;45.90;100999.41;5072546;28;20040;-66
2022/08/11 06:25:15;;;;;;;2.08;1.20;;;;;;;25.03;45.92;101005.16;5056355;28;20083;-66
2022/08/11 06:27:43;;;;;;;3.35;1.48;;;;;;;25.05;45.71;101005.72;5055638;28;20024;-65
2022/08/11 06:30:15;;;;;;;2.35;1.60;;;;;;;25.05;45.74;100993.97;5056168;28;20060;-65
2022/08/11 06:32:43;;;;;;;3.80;1.70;;;;;;;25.14;45.21;100992.34;5056451;28;20048;-66
2022/08/11 06:35:15;;;;;;;4.85;1.77;;;;;;;25.10;45.63;100996.72;5072507;28;20099;-66
2022/08/11 06:37:48;;;;;;;2.17;1.63;;;;;;;25.19;45.39;100994.25;5073339;28;20028;-66
2022/08/11 06:40:34;;;;;;;3.10;1.80;;;;;;;25.17;45.40;100991.78;5072424;28;20025;-65
2022/08/11 06:43:20;;;;;;;1.50;1.20;;;;;;;25.20;45.45;100990.41;5055944;28;20031;-66
2022/08/11 06:46:02;;;;;;;2.05;1.30;;;;;;;25.19;45.24;100988.78;5072983;28;20074;-65
2022/08/11 06:48:29;;;;;;;2.83;1.10;;;;;;;25.20;45.44;100990.41;5073158;28;20105;-65
2022/08/11 06:51:13;;;;;;;1.98;1.10;;;;;;;25.14;45.55;100989.59;5071810;28;20025;-65
2022/08/11 06:53:46;;;;;;;1.85;1.10;;;;;;;25.19;45.37;100984.13;5072612;28;20024;-65
2022/08/11 07:02:05;;;;;;;1.77;0.90;;;;;;;25.13;45.61;100979.78;5062957;28;20035;-65
2022/08/11 07:04:50;;;;;;;1.15;0.90;;;;;;;25.14;45.60;100981.41;5076141;28;20048;-65
2022/08/11 07:16:23;;;;;;;;;;;;;;;25.25;45.31;100971.28;5077779;28;20031;-65
2022/08/11 07:29:57;;;;;;;1.83;1.00;;;;;;;25.13;45.48;100960.63;5061638;28;20035;-65
2022/08/11 07:32:35;;;;;;;1.08;0.82;;;;;;;25.12;45.52;100948.84;5077141;28;20096;-65
2022/08/11 07:35:12;;;;;;;2.97;1.02;;;;;;;25.11;45.85;100957.31;5076757;28;20024;-65
2022/08/11 07:37:38;;;;;;;4.45;1.52;;;;;;;25.15;45.60;100955.69;5075881;28;20033;-66
2022/08/11 07:40:04;;;;;;;2.60;1.40;;;;;;;25.15;45.28;100944.75;5058642;28;20028;-65
2022/08/11 07:42:30;;;;;;;3.70;1.88;;;;;;;25.20;44.99;100936.56;5058004;28;20378;-65
2022/08/11 07:53:08;;;;;;;1.23;1.10;;;;;;;25.16;45.26;100940.91;5076160;28;20552;-65
2022/08/11 07:55:34;;;;;;;2.50;1.50;;;;;;;25.19;45.26;100923.97;5074447;28;20120;-65
2022/08/11 08:19:57;;;;;;;0.95;0.70;;;;;;;25.24;44.60;100937.66;5059371;28;20074;-65
2022/08/11 08:22:22;;;;;;;0.93;0.85;;;;;;;25.24;44.64;100926.69;5038156;28;20029;-65
2022/08/11 08:24:48;;;;;;;3.03;0.95;;;;;;;25.19;44.93;100928.63;5037725;28;20032;-66
2022/08/11 08:27:13;;;;;;;0.90;0.90;;;;;;;25.17;44.78;100920.69;5055538;28;20018;-63
2022/08/11 08:32:22;;;;;;;0.95;0.85;;;;;;;25.26;44.62;100930.00;5039957;28;20462;-65
2022/08/11 08:34:48;;;;;;;3.30;0.90;;;;;;;25.32;44.50;100939.06;5037414;28;20071;-65
2022/08/11 08:37:15;;;;;;;0.80;0.80;;;;;;;25.35;44.26;100932.22;5055383;28;20033;-65
2022/08/11 08:39:41;;;;;;;1.02;0.80;;;;;;;25.26;44.22;100932.75;5037542;28;20463;-64
2022/08/11 08:42:10;;;;;;;0.70;0.70;;;;;;;25.28;44.34;100930.59;5053811;28;20048;-64
2022/08/11 08:44:35;;;;;;;1.15;0.80;;;;;;;25.22;44.27;100934.38;5055062;28;20490;-65
2022/08/11 08:47:01;;;;;;;1.05;1.00;;;;;;;25.22;44.37;100928.91;5053921;28;20037;-66
2022/08/11 08:49:35;;;;;;;1.45;1.13;;;;;;;25.19;44.38;100917.69;5037331;28;20037;-65
2022/08/11 08:52:02;;;;;;;1.13;1.02;;;;;;;25.17;44.42;100920.69;5053388;28;20080;-65
2022/08/11 08:54:32;;;;;;;1.65;0.90;;;;;;;25.16;44.75;100916.31;5053328;28;20047;-66
2022/08/11 08:56:58;;;;;;;1.10;1.00;;;;;;;25.22;44.27;100928.91;5053255;28;20040;-64
2022/08/11 08:59:25;;;;;;;2.95;1.40;;;;;;;25.20;44.18;100920.16;5054339;28;20413;-66
2022/08/11 09:01:54;;;;;;;4.72;1.50;;;;;;;25.22;44.37;100922.63;5053402;28;20044;-65
2022/08/11 09:04:20;;;;;;;3.25;1.20;;;;;;;25.24;44.62;100917.69;5053047;28;20021;-65
2022/08/11 09:06:45;;;;;;;1.65;1.10;;;;;;;25.20;44.47;100920.16;5054381;28;20079;-63
2022/08/11 09:09:11;;;;;;;2.28;1.17;;;;;;;25.21;44.41;100902.63;5060352;28;20029;-65
2022/08/11 09:11:49;;;;;;;192.07;77.68;;;;;;;25.17;44.51;100917.94;5074659;28;20028;-64
2022/08/11 09:17:20;;;;;;;296.75;112.68;;;;;;;25.25;44.46;100901.03;5073930;28;20170;-66
2022/08/11 09:19:46;;;;;;;232.88;90.30;;;;;;;25.22;44.30;100901.53;5056653;28;20378;-67
2022/08/11 09:27:40;;;;;;;46.15;17.60;;;;;;;25.26;44.27;100896.38;5073309;28;20035;-65
2022/08/11 09:30:06;;;;;;;30.33;13.48;;;;;;;25.27;44.41;100893.38;5074732;28;20044;-66
2022/08/11 09:32:32;;;;;;;25.92;10.68;;;;;;;25.28;44.46;100886.81;5072278;28;20072;-66
2022/08/11 09:34:58;;;;;;;23.98;8.65;;;;;;;25.28;44.27;100881.34;5073728;28;20382;-64
2022/08/11 09:45:36;;;;;;;9.27;3.78;;;;;;;25.35;44.03;100877.50;5073727;28;20043;-65
2022/08/11 09:48:04;;;;;;;7.63;3.58;;;;;;;25.38;43.65;100885.16;5055777;28;20128;-66
2022/08/11 09:50:31;;;;;;;7.97;3.45;;;;;;;25.37;43.72;100864.34;5073249;28;20094;-64
2022/08/11 09:52:57;;;;;;;7.43;3.53;;;;;;;25.37;43.55;100869.81;5072360;28;20036;-64
2022/08/11 09:55:22;;;;;;;5.78;3.10;;;;;;;25.39;43.64;100870.38;5055411;28;20070;-64
2022/08/11 10:00:36;;;;;;;6.88;2.58;;;;;;;25.37;43.67;100870.66;5072483;28;20062;-65
2022/08/11 10:03:05;;;;;;;3.22;2.10;;;;;;;25.35;43.62;100870.09;5072723;28;20025;-64
2022/08/11 10:08:17;;;;;;;4.45;2.00;;;;;;;25.39;43.33;100868.47;5072333;28;20036;-65
2022/08/11 10:10:42;;;;;;;4.00;2.13;;;;;;;25.41;43.52;100869.00;5037286;28;20062;-65
2022/08/11 10:13:09;;;;;;;2.35;1.80;;;;;;;25.32;43.76;100867.09;5052162;28;20033;-65
2022/08/11 10:15:36;;;;;;;2.80;1.50;;;;;;;25.40;43.46;100875.56;5052536;28;20029;-65
2022/08/11 10:20:50;;;;;;;3.00;1.45;;;;;;;25.37;43.52;100869.81;5053357;28;20071;-65
2022/08/11 10:28:44;;;;;;;1.65;1.02;;;;;;;25.35;43.42;100866.56;5052253;28;20036;-64
2022/08/11 10:34:00;;;;;;;1.33;0.95;;;;;;;25.40;43.43;100881.03;5051860;28;20052;-65
2022/08/11 10:36:47;;;;;;;1.10;1.00;;;;;;;25.46;43.49;100868.19;5036558;28;20036;-65
2022/08/11 10:39:15;;;;;;;2.10;1.00;;;;;;;25.43;43.37;100876.94;5051733;28;20029;-65
2022/08/11 10:44:26;;;;;;;0.95;0.88;;;;;;;25.46;43.02;100869.00;5051816;28;20082;-64
2022/08/11 10:49:35;;;;;;;0.82;0.80;;;;;;;25.42;43.23;100878.03;5052745;28;20040;-64
2022/08/11 11:00:15;;;;;;;0.90;0.80;;;;;;;25.40;43.31;100870.09;5052688;28;20132;-65
2022/08/11 11:02:41;;;;;;;1.05;0.80;;;;;;;25.46;43.02;100863.53;5052654;28;20467;-65
2022/08/11 11:05:23;;;;;;;0.90;0.90;;;;;;;25.44;43.07;100856.69;5051445;28;20112;-66
2022/08/11 11:08:02;;;;;;;1.02;0.80;;;;;;;25.48;43.03;100855.88;5051273;28;20029;-65
2022/08/11 11:10:28;;;;;;;0.75;0.75;;;;;;;25.50;42.79;100858.31;5066813;28;20040;-65
2022/08/11 11:18:28;;;;;;;1.42;0.75;;;;;;;25.53;42.68;100848.75;5072626;28;20429;-65
2022/08/11 11:21:20;;;;;;;0.70;0.70;;;;;;;25.53;42.89;100855.03;5054643;28;20017;-65
2022/08/11 11:24:15;;;;;;;1.58;0.60;;;;;;;25.54;43.02;100859.41;5070732;28;20045;-67
2022/08/11 11:27:00;;;;;;;1.05;0.68;;;;;;;25.54;43.10;100845.72;5071344;28;20030;-65
2022/08/11 11:30:02;;;;;;;0.95;0.63;;;;;;;25.52;42.97;100845.19;5071853;28;20094;-66
2022/08/11 11:32:34;;;;;;;0.55;0.55;;;;;;;25.47;43.06;100842.44;5072073;28;20067;-65
2022/08/11 11:35:14;;;;;;;0.75;0.75;;;;;;;25.49;43.03;100851.19;5072467;28;20480;-65
2022/08/11 11:37:42;;;;;;;0.68;0.63;;;;;;;25.54;42.70;100858.59;5072712;28;20108;-65
2022/08/11 11:40:10;;;;;;;0.60;0.60;;;;;;;25.52;42.94;100850.66;5071402;28;20020;-65
2022/08/11 11:42:37;;;;;;;0.85;0.70;;;;;;;25.48;42.76;100850.38;5072381;28;20028;-65
2022/08/11 11:45:03;;;;;;;2.05;0.70;;;;;;;25.54;42.56;100855.84;5074779;28;20074;-65
2022/08/11 11:47:30;;;;;;;0.60;0.60;;;;;;;25.51;42.72;100846.28;5074780;28;20443;-65
2022/08/11 11:49:56;;;;;;;2.03;0.60;;;;;;;25.51;42.70;100859.13;5075114;28;20032;-65
2022/08/11 11:52:21;;;;;;;2.03;0.70;;;;;;;25.49;42.67;100863.00;5074964;28;20029;-65
2022/08/11 11:54:50;;;;;;;1.00;0.60;;;;;;;25.46;42.74;100851.78;5057880;28;20016;-66
2022/08/11 12:02:46;;;;;;;0.57;0.57;;;;;;;25.54;42.33;100845.72;5074943;28;20540;-66
2022/08/11 12:05:13;;;;;;;1.33;0.70;;;;;;;25.51;42.57;100839.97;5059489;28;20017;-65
2022/08/11 12:10:23;;;;;;;;;;;;;;;25.67;42.37;100852.56;5061688;28;20040;-65
2022/08/11 12:15:32;;;;;;;0.77;0.77;;;;;;;25.63;42.22;100848.72;5054490;28;20301;-65
2022/08/11 12:17:57;;;;;;;0.65;0.65;;;;;;;25.55;42.62;100852.84;5055571;28;20067;-66
2022/08/11 12:20:23;;;;;;;0.70;0.70;;;;;;;25.56;42.57;100856.38;5054215;28;20460;-65
2022/08/11 12:28:17;;;;;;;1.05;0.57;;;;;;;25.53;42.61;100852.31;5055165;28;20055;-65
2022/08/11 12:30:46;;;;;;;1.52;0.70;;;;;;;25.54;42.59;100853.94;5054076;28;20068;-66
2022/08/11 12:33:12;;;;;;;1.85;0.63;;;;;;;25.48;42.66;100866.00;5054022;28;20132;-65
2022/08/11 12:35:38;;;;;;;0.68;0.60;;;;;;;25.49;42.59;100862.16;5056198;28;20047;-65
2022/08/11 12:38:03;;;;;;;0.55;0.55;;;;;;;25.50;42.63;100869.28;5054052;28;20021;-65
2022/08/11 12:45:58;;;;;;;2.40;0.63;;;;;;;25.53;42.66;100863.25;5055361;28;19920;-65
2022/08/11 12:54:11;;;;;;;0.75;0.60;;;;;;;25.58;42.12;100849.56;5053771;28;20080;-65
2022/08/11 13:04:55;;;;;;;1.50;0.57;;;;;;;25.53;42.32;100851.50;5054597;28;20027;-65
2022/08/11 13:07:20;;;;;;;0.57;0.57;;;;;;;25.56;42.29;100845.44;5053614;28;20044;-65
2022/08/11 13:09:46;;;;;;;1.08;0.43;;;;;;;25.52;42.08;100861.59;5061456;28;20104;-65
2022/08/11 13:14:57;;;;;;;0.60;0.60;;;;;;;25.58;42.06;100859.69;5074726;28;20501;-65
2022/08/11 13:17:25;;;;;;;0.50;0.50;;;;;;;25.55;42.08;100863.78;5073189;28;20028;-65
2022/08/11 13:19:50;;;;;;;0.50;0.40;;;;;;;25.58;42.21;100856.97;5074639;28;20087;-65
2022/08/11 13:22:17;;;;;;;0.70;0.60;;;;;;;25.60;42.11;100858.31;5056739;28;20025;-65
2022/08/11 13:24:42;;;;;;;0.60;0.60;;;;;;;25.56;42.06;100854.50;5075079;28;20130;-65
2022/08/11 13:27:08;;;;;;;0.40;0.40;;;;;;;25.64;41.75;100855.84;5074302;28;20462;-65
2022/08/11 13:29:34;;;;;;;0.50;0.50;;;;;;;25.61;42.01;100859.13;5073039;28;20033;-65
2022/08/11 13:32:00;;;;;;;0.77;0.63;;;;;;;25.58;41.83;100855.03;5074284;28;21397;-65
2022/08/11 13:34:26;;;;;;;0.50;0.50;;;;;;;25.60;41.82;100852.84;5073171;28;20389;-65
2022/08/11 13:36:56;;;;;;;0.52;0.52;;;;;;;25.62;41.84;100850.63;5073927;28;20032;-65
2022/08/11 13:39:22;;;;;;;0.40;0.40;;;;;;;25.61;41.75;100842.69;5056556;28;20032;-65
2022/08/11 13:41:47;;;;;;;0.40;0.40;;;;;;;25.58;41.86;100838.63;5072779;28;20021;-65
2022/08/11 13:44:15;;;;;;;0.40;0.40;;;;;;;25.62;41.96;100847.91;5073342;28;20031;-65
2022/08/11 13:46:42;;;;;;;0.40;0.40;;;;;;;25.64;41.68;100842.97;5056240;28;20028;-65
2022/08/11 13:49:10;;;;;;;0.50;0.50;;;;;;;25.64;41.80;100845.69;5072935;28;20107;-65
2022/08/11 13:51:37;;;;;;;0.52;0.52;;;;;;;25.63;41.89;100844.06;5073931;28;20020;-65
2022/08/11 13:54:09;;;;;;;0.50;0.50;;;;;;;25.63;41.76;100841.34;5074178;28;20078;-65
2022/08/11 13:56:39;;;;;;;0.50;0.50;;;;;;;25.62;42.16;100834.22;5072904;28;20021;-65
2022/08/11 13:59:09;;;;;;;0.50;0.50;;;;;;;25.65;41.91;100839.13;5072524;28;20032;-65
2022/08/11 14:01:42;;;;;;;0.68;0.50;;;;;;;25.61;41.96;100843.53;5073067;28;20028;-65
2022/08/11 14:04:10;;;;;;;0.60;0.60;;;;;;;25.64;41.61;100848.44;5072960;28;20115;-65
2022/08/11 14:06:37;;;;;;;0.47;0.47;;;;;;;25.64;41.61;100850.34;5072233;28;20056;-65
2022/08/11 14:09:03;;;;;;;0.40;0.40;;;;;;;25.64;41.93;100848.44;5072332;28;20032;-65
2022/08/11 14:14:20;;;;;;;0.50;0.50;;;;;;;25.67;41.65;100858.84;5032857;28;20415;-65
2022/08/11 14:16:45;;;;;;;0.50;0.50;;;;;;;25.65;41.64;100855.56;5016964;28;20084;-65
2022/08/11 14:19:12;;;;;;;0.60;0.60;;;;;;;25.67;41.51;100858.03;5015716;28;20029;-65
2022/08/11 14:24:25;;;;;;;0.50;0.50;;;;;;;25.63;41.62;100854.19;5032675;28;20072;-66
2022/08/11 14:26:50;;;;;;;0.50;0.50;;;;;;;25.60;41.61;100852.03;5032175;28;20029;-66
2022/08/11 14:29:17;;;;;;;0.50;0.50;;;;;;;25.64;41.52;100853.91;5033718;28;20026;-66
2022/08/11 14:31:44;;;;;;;0.60;0.60;;;;;;;25.63;41.67;100846.81;5032144;28;20117;-66
2022/08/11 14:34:11;;;;;;;0.52;0.52;;;;;;;25.62;41.64;100842.44;5032427;28;20033;-66
2022/08/11 14:36:44;;;;;;;0.73;0.50;;;;;;;25.61;41.68;100851.75;5033576;28;20034;-66
2022/08/11 14:39:12;;;;;;;0.70;0.70;;;;;;;25.63;41.61;100846.81;5032295;28;20032;-66
2022/08/11 14:47:13;;;;;;;1.30;0.50;;;;;;;25.64;41.73;100847.63;5032457;28;20040;-66
2022/08/11 14:49:39;;;;;;;0.52;0.50;;;;;;;25.62;41.53;100849.81;5031935;28;20124;-66
2022/08/11 14:52:15;;;;;;;1.13;0.60;;;;;;;25.62;41.57;100852.56;5032210;28;20113;-66
2022/08/11 14:57:28;;;;;;;0.55;0.55;;;;;;;25.62;41.86;100850.63;5032143;28;20391;-66
2022/08/11 14:59:54;;;;;;;0.70;0.65;;;;;;;25.62;41.66;100845.16;5032465;28;20037;-67
2022/08/11 15:05:04;;;;;;;0.77;0.70;;;;;;;25.67;41.70;100858.03;5032322;28;20087;-66
2022/08/11 15:07:33;;;;;;;0.70;0.70;;;;;;;25.66;41.57;100851.75;5033611;28;20455;-65
2022/08/11 15:09:59;;;;;;;0.85;0.60;;;;;;;25.68;41.63;100863.22;5032251;28;20542;-65
2022/08/11 15:12:25;;;;;;;0.93;0.60;;;;;;;25.65;41.58;100861.03;5033149;28;20052;-65
2022/08/11 15:17:34;;;;;;;0.60;0.60;;;;;;;25.64;41.80;100853.91;5034520;28;20036;-65
2022/08/11 15:26:02;;;;;;;0.50;0.50;;;;;;;25.63;41.77;100862.41;5020756;28;20132;-65
2022/08/11 15:39:28;;;;;;;0.52;0.52;;;;;;;25.59;41.56;100862.13;5040032;28;20033;-64
2022/08/11 15:47:31;;;;;;;0.55;0.52;;;;;;;25.58;41.97;100867.91;5025755;28;20036;-64
2022/08/11 15:49:56;;;;;;;0.50;0.50;;;;;;;25.58;42.17;100862.44;5040365;28;20040;-64
2022/08/11 15:52:23;;;;;;;0.50;0.50;;;;;;;25.57;42.18;100871.72;5021565;28;20021;-64
2022/08/11 15:54:49;;;;;;;0.60;0.60;;;;;;;25.57;42.17;100861.59;5019298;28;20044;-64
2022/08/11 16:04:10;;;;;;;0.50;0.50;;;;;;;25.56;42.27;100857.22;5036561;28;20030;-64
2022/08/11 16:05:19;;;;;;;0.35;0.35;;;;;;;25.55;42.26;100865.72;5034905;28;20017;-64
2022/08/11 16:07:47;;;;;;;0.52;0.52;;;;;;;25.55;42.41;100866.53;5018330;28;20468;-64
2022/08/11 16:10:22;;;;;;;0.63;0.55;;;;;;;25.53;42.47;100867.91;5033998;28;20032;-64
2022/08/11 16:18:15;;;;;;;0.57;0.57;;;;;;;25.53;42.71;100868.72;5074971;28;20492;-64
2022/08/11 16:20:40;;;;;;;0.40;0.40;;;;;;;25.52;42.68;100861.59;5074680;28;20028;-64
2022/08/11 16:23:05;;;;;;;0.55;0.55;;;;;;;25.52;42.78;100864.34;5074675;28;20021;-64
2022/08/11 16:25:34;;;;;;;0.40;0.40;;;;;;;25.50;42.63;100872.00;5074674;28;20024;-65
2022/08/11 16:28:05;;;;;;;0.70;0.70;;;;;;;25.47;42.92;100867.91;5075818;28;20021;-65
2022/08/11 16:30:33;;;;;;;0.60;0.60;;;;;;;25.48;42.80;100868.72;5073363;28;20461;-65
2022/08/11 16:32:59;;;;;;;0.95;0.52;;;;;;;25.46;43.02;100870.94;5074193;28;20048;-65